Time;durP1;ratioP1;P1;durP2;ratioP2;P2;SDS_P1;SDS_P2;PMS_P1;PMS_P2;Temp;Humidity;BMP_temperature;BMP_pressure;BME280_temperature;BME280_humidity;BME280_pressure;Samples;Min_cycle;Max_cycle;Signal;HPM_P1;HPM_P2
2021/01/21 00:00:29;;;;;;;;;11.75;10.50;;;;;17.29;40.43;97604.66;4802803;28;102832;-80
2021/01/21 00:02:56;;;;;;;;;12.75;11.50;;;;;17.30;40.27;97610.97;4790009;28;103001;-80
2021/01/21 00:05:26;;;;;;;;;13.00;9.50;;;;;17.31;40.19;97613.44;4757216;28;104030;-80
2021/01/21 00:07:53;;;;;;;;;14.75;11.00;;;;;17.27;39.93;97589.66;4796981;28;103135;-80
2021/01/21 00:10:20;;;;;;;;;13.75;11.00;;;;;17.24;40.81;97593.75;4765439;28;103053;-79
2021/01/21 00:12:47;;;;;;;;;13.25;11.25;;;;;17.25;40.19;97575.41;4792509;28;102898;-80
2021/01/21 00:15:14;;;;;;;;;12.00;10.25;;;;;17.25;40.99;97587.16;4799462;28;107699;-80
2021/01/21 00:17:44;;;;;;;;;10.50;10.00;;;;;17.28;40.36;97596.75;4767911;28;104143;-80
2021/01/21 00:20:14;;;;;;;;;11.25;11.25;;;;;17.25;40.20;97591.81;4791084;28;102945;-80
2021/01/21 00:22:43;;;;;;;;;14.25;10.75;;;;;17.23;40.37;97555.75;4809000;28;103550;-80
2021/01/21 00:25:13;;;;;;;;;14.00;11.50;;;;;17.25;40.10;97586.34;4780670;28;108934;-80
2021/01/21 00:27:40;;;;;;;;;14.00;11.25;;;;;17.21;40.59;97579.78;4767667;28;103688;-80
2021/01/21 00:30:09;;;;;;;;;14.75;13.75;;;;;17.23;40.74;97610.41;4773894;28;102888;-80
2021/01/21 00:32:38;;;;;;;;;12.75;10.25;;;;;17.23;40.10;97594.84;4746912;28;102958;-79
2021/01/21 00:35:07;;;;;;;;;11.75;11.00;;;;;17.21;40.32;97594.25;4702152;28;106653;-80
2021/01/21 00:37:34;;;;;;;;;13.00;11.00;;;;;17.21;40.68;97586.06;4780080;28;102966;-79
2021/01/21 00:40:01;;;;;;;;;12.50;10.50;;;;;17.23;40.76;97591.28;4770648;28;102984;-80
2021/01/21 00:42:28;;;;;;;;;10.75;10.00;;;;;17.22;40.19;97597.81;4715223;28;103123;-80
2021/01/21 00:45:01;;;;;;;;;13.00;11.50;;;;;17.19;40.33;97581.97;4714874;28;104143;-80
2021/01/21 00:47:32;;;;;;;;;12.50;11.75;;;;;17.20;40.21;97580.88;4694909;28;104383;-80
2021/01/21 00:50:01;;;;;;;;;12.25;12.00;;;;;17.20;40.24;97568.03;4794975;28;102896;-80
2021/01/21 00:52:35;;;;;;;;;14.00;13.00;;;;;17.18;40.50;97547.53;4755211;28;103225;-80
2021/01/21 00:55:01;;;;;;;;;11.50;10.50;;;;;17.19;40.36;97584.72;4740632;28;104132;-80
2021/01/21 00:57:31;;;;;;;;;9.00;9.00;;;;;17.18;40.73;97585.78;4737961;28;103261;-80
2021/01/21 00:59:59;;;;;;;;;12.50;10.75;;;;;17.20;41.07;97583.63;4708745;28;103658;-79
2021/01/21 01:02:29;;;;;;;;;12.50;11.75;;;;;17.19;40.40;97576.50;4678862;28;103302;-80
2021/01/21 01:04:57;;;;;;;;;13.25;12.00;;;;;17.20;40.62;97580.88;4669900;28;103872;-79
2021/01/21 01:07:30;;;;;;;;;12.00;10.75;;;;;17.20;41.08;97583.63;4727639;28;103131;-79
2021/01/21 01:09:59;;;;;;;;;13.50;12.75;;;;;17.17;40.07;97567.75;4684545;28;102976;-79
2021/01/21 01:12:27;;;;;;;;;15.00;11.75;;;;;17.16;39.84;97568.84;4699543;28;103133;-80
2021/01/21 01:14:56;;;;;;;;;16.00;13.75;;;;;17.15;40.26;97559.84;4713903;28;103515;-80
2021/01/21 01:17:29;;;;;;;;;14.75;13.75;;;;;17.21;39.92;97577.88;4648697;28;105326;-80
2021/01/21 01:19:57;;;;;;;;;14.50;12.50;;;;;17.16;40.65;97558.72;4662465;28;103159;-79
2021/01/21 01:22:36;;;;;;;;;13.75;13.25;;;;;17.17;40.08;97552.19;4585882;28;104069;-80
2021/01/21 01:25:11;;;;;;;;;16.75;14.25;;;;;17.19;40.61;97560.94;4555287;28;104635;-80
2021/01/21 01:27:45;;;;;;;;;14.25;13.00;;;;;17.18;40.67;97558.47;4551329;28;103421;-80
2021/01/21 01:30:20;;;;;;;;;16.00;15.00;;;;;17.16;40.51;97534.16;4521380;28;104111;-80
2021/01/21 01:33:05;;;;;;;;;;;;;;;;;;;;;
2021/01/21 01:35:45;;;;;;;;;14.75;13.00;;;;;17.15;40.33;97559.84;4554893;28;104159;-80
2021/01/21 01:38:27;;;;;;;;;;;;;;;;;;;;;
2021/01/21 01:40:54;;;;;;;;;14.00;12.75;;;;;17.16;40.82;97525.13;4526911;28;103030;-80
2021/01/21 01:43:31;;;;;;;;;16.00;16.00;;;;;17.18;40.75;97564.75;4551767;28;103044;-79
2021/01/21 01:46:41;;;;;;;;;14.50;13.25;;;;;17.17;40.84;97551.34;4588593;28;109029;-80
2021/01/21 01:49:44;;;;;;;;;;;;;;;;;;;;;
2021/01/21 01:52:22;;;;;;;;;17.50;15.75;;;;;17.15;40.62;97524.34;4608590;28;103067;-80
2021/01/21 01:55:06;;;;;;;;;;;;;;;;;;;;;
2021/01/21 01:57:43;;;;;;;;;16.50;14.50;;;;;17.13;40.41;97514.75;4544756;28;104320;-80
2021/01/21 02:00:18;;;;;;;;;13.25;11.00;;;;;17.14;40.67;97530.06;4531669;28;103952;-80
2021/01/21 02:03:01;;;;;;;;;18.50;15.50;;;;;17.14;40.93;97541.81;4567380;28;104355;-80
2021/01/21 02:05:54;;;;;;;;;;;;;;;;;;;;;
2021/01/21 02:08:33;;;;;;;;;20.25;16.50;;;;;17.14;39.71;97524.59;4532370;28;109396;-80
2021/01/21 02:11:18;;;;;;;;;;;;;;;;;;;;;
2021/01/21 02:14:28;;;;;;;;;;;;;;;;;;;;;
2021/01/21 02:17:17;;;;;;;;;17.00;14.50;;;;;17.14;40.61;97555.47;4426919;29;104464;-80
2021/01/21 02:20:29;;;;;;;;;16.25;14.50;;;;;17.18;40.28;97548.38;4439679;28;109417;-80
2021/01/21 02:23:44;;;;;;;;;;;;;;;;;;;;;
2021/01/21 02:26:45;;;;;;;;;16.50;14.00;;;;;17.14;40.42;97552.72;4468836;29;104740;-80
2021/01/21 02:29:48;;;;;;;;;15.00;13.75;;;;;17.12;40.23;97543.97;4489608;28;103024;-80
2021/01/21 02:33:23;;;;;;;;;16.25;12.75;;;;;17.17;40.28;97545.91;5544983;22;105945;-77
2021/01/21 02:35:53;;;;;;;;;17.00;14.75;;;;;17.15;40.31;97542.63;4732429;28;104312;-78
2021/01/21 02:38:24;;;;;;;;;20.75;17.00;;;;;17.15;40.38;97531.69;4784205;28;104262;-80
2021/01/21 02:40:53;;;;;;;;;16.00;14.25;;;;;17.15;39.79;97537.16;4771449;28;103060;-80
2021/01/21 02:43:23;;;;;;;;;16.00;11.75;;;;;17.13;40.95;97533.88;4793780;28;103942;-80
2021/01/21 02:45:51;;;;;;;;;12.50;12.25;;;;;17.14;40.75;97540.97;4794280;28;104571;-80
2021/01/21 02:48:22;;;;;;;;;19.75;15.25;;;;;17.12;40.15;97533.03;4803901;28;103197;-80
2021/01/21 02:51:07;;;;;;;;;9.75;9.00;;;;;17.12;40.49;97533.03;4796588;28;105463;-80
2021/01/21 02:53:35;;;;;;;;;15.25;13.75;;;;;17.12;40.25;97522.13;4707847;28;108625;-80
2021/01/21 02:56:04;;;;;;;;;17.25;14.50;;;;;17.11;40.44;97519.69;4811195;28;102936;-80
2021/01/21 02:58:37;;;;;;;;;18.25;17.00;;;;;17.11;40.13;97519.69;4788882;28;102809;-80
2021/01/21 03:01:04;;;;;;;;;15.25;14.25;;;;;17.09;40.72;97522.66;4801878;28;102915;-80
2021/01/21 03:03:31;;;;;;;;;18.25;17.00;;;;;17.12;40.40;97529.50;4808566;28;104763;-80
2021/01/21 03:06:00;;;;;;;;;18.25;14.00;;;;;17.10;40.77;97521.59;4790005;28;104953;-80
2021/01/21 03:08:30;;;;;;;;;13.50;13.00;;;;;17.11;40.66;97527.88;4785441;28;102922;-80
2021/01/21 03:11:12;;;;;;;;;20.50;16.00;;;;;17.11;40.39;97530.59;4762994;28;102964;-80
2021/01/21 03:13:41;;;;;;;;;14.75;14.75;;;;;17.10;40.19;97528.94;4784083;28;104094;-80
2021/01/21 03:16:07;;;;;;;;;13.50;13.50;;;;;17.08;40.70;97522.91;4783812;28;102908;-80
2021/01/21 03:18:34;;;;;;;;;16.00;14.50;;;;;17.10;40.52;97534.41;4797094;28;104705;-80
2021/01/21 03:21:01;;;;;;;;;18.75;16.00;;;;;17.10;39.89;97534.41;4794196;28;102968;-80
2021/01/21 03:23:27;;;;;;;;;16.75;14.00;;;;;17.08;40.51;97531.94;4797122;28;104049;-80
2021/01/21 03:25:54;;;;;;;;;18.25;15.75;;;;;17.10;40.61;97537.97;4807848;28;102838;-80
2021/01/21 03:28:21;;;;;;;;;17.50;14.00;;;;;17.08;40.60;97531.94;4792386;28;102958;-80
2021/01/21 03:30:47;;;;;;;;;18.00;16.25;;;;;17.09;40.11;97543.69;4795248;28;102972;-80
2021/01/21 03:33:14;;;;;;;;;15.75;12.00;;;;;17.09;40.67;97547.25;4804208;28;103885;-80
2021/01/21 03:35:41;;;;;;;;;15.50;14.50;;;;;17.09;40.71;97547.25;4825556;28;103043;-80
2021/01/21 03:38:08;;;;;;;;;14.75;14.25;;;;;17.08;40.68;97547.50;4827463;28;102930;-80
2021/01/21 03:40:34;;;;;;;;;14.25;13.75;;;;;17.07;40.48;97543.94;4811077;28;103714;-80
2021/01/21 03:43:01;;;;;;;;;16.00;14.50;;;;;17.06;40.45;97545.06;4825486;28;104482;-80
2021/01/21 03:45:28;;;;;;;;;17.00;13.00;;;;;17.08;39.98;97548.31;4825384;28;102779;-80
2021/01/21 03:47:54;;;;;;;;;20.50;16.00;;;;;17.08;40.17;97547.50;4808457;28;102830;-80
2021/01/21 03:50:21;;;;;;;;;16.00;14.00;;;;;17.07;41.02;97549.41;4830380;28;104762;-80
2021/01/21 03:52:48;;;;;;;;;14.75;14.25;;;;;17.06;40.15;97541.50;4825162;28;103823;-80
2021/01/21 03:55:15;;;;;;;;;15.75;14.75;;;;;17.08;40.30;97537.41;4813847;28;103633;-80
2021/01/21 03:57:41;;;;;;;;;15.75;14.25;;;;;17.07;40.49;97530.28;4824303;28;103045;-80
2021/01/21 04:00:09;;;;;;;;;18.75;16.25;;;;;17.07;40.44;97533.03;4828236;28;103041;-80
2021/01/21 04:02:36;;;;;;;;;13.75;12.50;;;;;17.07;40.82;97532.19;4830635;28;104842;-80
2021/01/21 04:05:03;;;;;;;;;18.00;16.00;;;;;17.08;40.57;97542.03;4826092;28;104250;-80
2021/01/21 04:07:30;;;;;;;;;16.00;14.75;;;;;17.09;39.89;97538.22;4828818;28;102982;-80
2021/01/21 04:09:57;;;;;;;;;18.50;14.25;;;;;17.08;40.59;97522.91;4832546;28;103024;-80
2021/01/21 04:12:23;;;;;;;;;17.25;14.00;;;;;17.09;40.48;97533.59;4825135;28;103949;-80
2021/01/21 04:14:50;;;;;;;;;16.25;12.75;;;;;17.08;40.52;97522.91;4834195;28;102868;-80
2021/01/21 04:17:17;;;;;;;;;17.50;13.75;;;;;17.10;40.38;97512.56;4815511;28;103691;-80
2021/01/21 04:19:43;;;;;;;;;17.00;16.00;;;;;17.08;40.23;97520.19;4834708;28;102857;-80
2021/01/21 04:22:10;;;;;;;;;16.50;16.00;;;;;17.06;39.89;97512.28;4828611;28;103997;-80
2021/01/21 04:24:37;;;;;;;;;15.75;13.75;;;;;17.07;40.21;97513.06;4829527;28;103558;-80
2021/01/21 04:27:04;;;;;;;;;16.25;15.00;;;;;17.06;40.15;97511.47;4827644;28;102926;-80
2021/01/21 04:29:31;;;;;;;;;15.50;14.50;;;;;17.04;40.46;97513.63;4809589;28;103104;-80
2021/01/21 04:31:57;;;;;;;;;15.25;13.25;;;;;17.05;39.71;97518.00;4811573;28;104346;-80
2021/01/21 04:34:25;;;;;;;;;15.50;13.00;;;;;17.04;40.55;97508.16;4826068;28;102725;-80
2021/01/21 04:36:51;;;;;;;;;17.25;14.75;;;;;17.01;39.73;97519.63;4824498;28;102773;-80
2021/01/21 04:39:18;;;;;;;;;17.75;13.75;;;;;17.01;40.19;97519.63;4831933;28;105385;-80
2021/01/21 04:41:45;;;;;;;;;18.75;14.50;;;;;16.98;40.39;97501.03;4825960;28;104035;-80
2021/01/21 04:44:12;;;;;;;;;17.75;15.00;;;;;16.97;40.09;97496.69;4826926;28;105385;-80
2021/01/21 04:46:39;;;;;;;;;19.25;16.25;;;;;16.95;40.21;97505.13;4828952;28;103000;-80
2021/01/21 04:49:06;;;;;;;;;15.75;15.00;;;;;16.92;40.30;97511.97;4811939;28;103058;-80
2021/01/21 04:51:33;;;;;;;;;17.50;14.50;;;;;16.90;40.44;97513.31;4796886;28;103939;-80
2021/01/21 04:54:03;;;;;;;;;15.25;14.00;;;;;16.88;40.54;97493.66;4836110;28;103021;-80
2021/01/21 04:56:35;;;;;;;;;19.25;14.75;;;;;16.86;40.10;97504.84;4807308;28;102804;-80
2021/01/21 04:59:02;;;;;;;;;18.75;15.50;;;;;16.84;40.04;97504.28;4839065;28;106921;-80
2021/01/21 05:01:30;;;;;;;;;17.50;15.00;;;;;16.81;40.19;97504.81;4811390;28;105400;-80
2021/01/21 05:03:57;;;;;;;;;19.00;16.00;;;;;16.79;40.23;97501.56;4821960;28;102861;-80
2021/01/21 05:06:24;;;;;;;;;17.00;16.50;;;;;16.76;40.82;97513.00;4828029;28;102896;-80
2021/01/21 05:08:51;;;;;;;;;19.25;16.50;;;;;16.74;40.47;97515.19;4827083;28;103013;-80
2021/01/21 05:11:17;;;;;;;;;23.25;17.25;;;;;16.72;40.17;97511.88;4824374;28;108728;-80
2021/01/21 05:13:44;;;;;;;;;16.50;15.00;;;;;16.69;40.25;97506.97;4823671;28;103768;-80
2021/01/21 05:16:11;;;;;;;;;18.25;16.50;;;;;16.67;40.74;97511.84;4823481;28;102926;-80
2021/01/21 05:18:38;;;;;;;;;17.50;17.25;;;;;16.65;40.42;97508.59;4827818;28;103034;-80
2021/01/21 05:21:08;;;;;;;;;26.75;18.25;;;;;16.62;40.55;97511.00;4821761;28;104072;-80
2021/01/21 05:23:34;;;;;;;;;15.25;15.25;;;;;16.62;40.67;97511.00;4825587;28;103324;-80
2021/01/21 05:26:01;;;;;;;;;23.50;20.50;;;;;16.59;40.22;97501.47;4810578;28;102904;-80
2021/01/21 05:28:28;;;;;;;;;23.00;21.00;;;;;16.55;40.62;97503.03;4823659;28;103009;-80
2021/01/21 05:30:58;;;;;;;;;18.75;18.50;;;;;16.53;40.77;97513.41;4839890;28;104362;-80
2021/01/21 05:33:27;;;;;;;;;20.75;19.25;;;;;16.50;39.70;97497.56;4830560;28;103369;-80
2021/01/21 05:35:54;;;;;;;;;23.25;18.00;;;;;16.48;39.93;97502.44;4826148;28;103496;-80
2021/01/21 05:38:21;;;;;;;;;22.75;19.50;;;;;16.45;40.67;97506.53;4819113;28;102942;-80
2021/01/21 05:40:48;;;;;;;;;21.50;18.50;;;;;16.42;40.17;97504.34;4834340;28;109435;-80
2021/01/21 05:43:15;;;;;;;;;19.25;18.75;;;;;16.41;40.77;97510.06;4828737;28;103965;-80
2021/01/21 05:45:45;;;;;;;;;25.25;20.00;;;;;16.40;40.09;97508.41;4826004;28;102868;-80
2021/01/21 05:48:14;;;;;;;;;18.50;17.25;;;;;16.37;40.46;97506.22;4830528;28;102934;-80
2021/01/21 05:50:41;;;;;;;;;21.25;19.25;;;;;16.34;40.43;97504.03;4819917;28;104067;-80
2021/01/21 05:53:10;;;;;;;;;21.50;17.25;;;;;16.32;40.27;97511.66;4828968;28;102847;-80
2021/01/21 05:55:38;;;;;;;;;18.50;16.00;;;;;16.28;40.63;97505.91;4830692;28;106180;-80
2021/01/21 05:58:06;;;;;;;;;20.75;17.00;;;;;16.26;40.21;97502.59;4830292;28;102910;-80
2021/01/21 06:00:34;;;;;;;;;18.00;17.00;;;;;16.24;40.81;97512.16;4825261;28;103535;-80
2021/01/21 06:03:01;;;;;;;;;21.50;18.00;;;;;16.21;40.18;97515.41;4831767;28;102651;-80
2021/01/21 06:05:28;;;;;;;;;17.75;17.50;;;;;16.18;40.63;97503.13;4821637;28;104074;-80
2021/01/21 06:07:55;;;;;;;;;21.25;19.00;;;;;16.14;40.60;97499.28;4827921;28;103395;-78
2021/01/21 06:10:22;;;;;;;;;17.50;15.75;;;;;16.14;40.65;97506.63;4817795;28;103875;-79
2021/01/21 06:12:52;;;;;;;;;18.50;16.50;;;;;16.12;40.39;97517.00;4823362;28;102805;-78
2021/01/21 06:15:19;;;;;;;;;20.00;16.75;;;;;16.07;41.12;97515.06;4829115;28;102910;-79
2021/01/21 06:17:47;;;;;;;;;19.75;16.50;;;;;16.06;40.51;97518.88;4811302;28;102904;-79
2021/01/21 06:20:14;;;;;;;;;23.25;18.75;;;;;16.03;40.66;97514.72;4827463;28;104139;-78
2021/01/21 06:22:43;;;;;;;;;17.00;15.75;;;;;16.01;40.73;97522.38;4825451;28;102792;-78
2021/01/21 06:25:17;;;;;;;;;19.25;15.75;;;;;15.99;40.89;97534.59;4821793;28;102890;-79
2021/01/21 06:27:44;;;;;;;;;14.75;14.25;;;;;15.96;40.55;97530.50;4823195;28;105614;-79
2021/01/21 06:30:19;;;;;;;;;20.50;19.25;;;;;15.94;41.00;97535.41;4818489;28;106111;-79
2021/01/21 06:33:02;;;;;;;;;18.25;15.00;;;;;15.92;40.74;97531.28;4824369;28;102976;-78
2021/01/21 06:35:39;;;;;;;;;21.00;18.00;;;;;15.89;41.10;97515.47;4768243;28;102874;-78
2021/01/21 06:38:11;;;;;;;;;19.25;18.00;;;;;15.85;40.75;97526.06;4823442;28;103002;-79
2021/01/21 06:40:38;;;;;;;;;19.25;17.00;;;;;15.84;40.80;97529.88;4827918;28;104701;-79
2021/01/21 06:43:11;;;;;;;;;17.50;16.75;;;;;15.82;41.15;97532.03;4829431;28;102953;-78
2021/01/21 06:45:38;;;;;;;;;20.00;18.00;;;;;15.78;40.62;97530.91;4834159;28;102790;-78
2021/01/21 06:48:06;;;;;;;;;18.75;16.75;;;;;15.78;40.93;97525.47;4829693;28;102912;-78
2021/01/21 06:50:34;;;;;;;;;18.75;17.75;;;;;15.76;40.94;97530.34;4829766;28;104305;-79
2021/01/21 06:53:03;;;;;;;;;24.00;17.25;;;;;15.73;41.25;97530.88;4805986;28;102850;-79
2021/01/21 06:55:30;;;;;;;;;23.50;19.00;;;;;15.72;40.84;97523.78;4809090;28;103264;-78
2021/01/21 06:57:57;;;;;;;;;24.75;18.25;;;;;15.69;40.73;97532.47;4827854;28;103223;-78
2021/01/21 07:00:44;;;;;;;;;21.50;19.50;;;;;15.67;41.00;97531.09;4831121;28;104508;-78
2021/01/21 07:03:28;;;;;;;;;21.75;19.50;;;;;15.66;40.75;97546.63;4761229;28;102849;-78
2021/01/21 07:05:59;;;;;;;;;20.00;16.25;;;;;15.63;40.98;97541.69;4829721;28;102827;-78
2021/01/21 07:08:27;;;;;;;;;21.75;19.25;;;;;15.62;41.00;97534.59;4833076;28;102744;-78
2021/01/21 07:10:58;;;;;;;;;19.25;18.00;;;;;15.59;41.28;97535.09;4816854;28;103908;-78
2021/01/21 07:13:28;;;;;;;;;20.75;18.00;;;;;15.58;40.82;97538.91;4830256;28;103004;-78
2021/01/21 07:16:01;;;;;;;;;24.00;18.00;;;;;15.54;41.06;97526.88;4837437;28;102983;-78
2021/01/21 07:18:30;;;;;;;;;21.25;18.50;;;;;15.53;40.99;97534.25;4809352;28;102981;-78
2021/01/21 07:21:03;;;;;;;;;19.50;17.25;;;;;15.51;41.70;97530.13;4827971;28;104018;-78
2021/01/21 07:23:38;;;;;;;;;27.25;20.75;;;;;15.48;40.90;97534.19;4834695;28;102879;-78
2021/01/21 07:26:14;;;;;;;;;23.50;20.25;;;;;15.47;40.89;97531.69;4832743;28;102977;-78
2021/01/21 07:28:58;;;;;;;;;20.25;16.25;;;;;15.45;41.01;97528.41;4829284;28;102970;-78
2021/01/21 07:31:26;;;;;;;;;23.00;19.25;;;;;15.44;41.23;97524.06;4836506;28;104036;-78
2021/01/21 07:34:22;;;;;;;;;25.00;20.50;;;;;15.42;41.03;97523.47;4831205;28;103004;-78
2021/01/21 07:37:11;;;;;;;;;21.25;18.00;;;;;15.40;41.15;97521.00;4774891;28;103017;-78
2021/01/21 07:40:12;;;;;;;;;20.00;18.75;;;;;15.38;41.23;97530.53;4828676;28;102892;-79
2021/01/21 07:42:39;;;;;;;;;24.75;19.00;;;;;15.35;41.34;97520.16;4775320;28;108704;-78
2021/01/21 07:45:18;;;;;;;;;24.00;18.75;;;;;15.32;41.26;97517.94;4832242;28;103038;-79
2021/01/21 07:47:50;;;;;;;;;24.50;19.75;;;;;15.32;41.50;97529.66;4833892;28;102990;-78
2021/01/21 07:50:22;;;;;;;;;22.75;20.50;;;;;15.30;41.49;97523.66;4836656;28;102888;-78
2021/01/21 07:52:49;;;;;;;;;25.25;19.50;;;;;15.30;41.02;97522.81;4834394;28;104109;-79
2021/01/21 07:55:36;;;;;;;;;22.75;19.25;;;;;15.27;41.63;97526.03;4835945;28;103657;-78
2021/01/21 07:58:38;;;;;;;;;22.50;19.25;;;;;15.26;41.00;97525.25;4769769;28;103170;-78
2021/01/21 08:01:05;;;;;;;;;19.00;17.50;;;;;15.24;41.50;97519.22;4782300;28;103771;-78
2021/01/21 08:03:50;;;;;;;;;21.25;20.00;;;;;15.22;40.93;97515.13;4830585;28;103905;-79
2021/01/21 08:06:18;;;;;;;;;16.50;16.50;;;;;15.22;41.73;97513.19;4832392;28;102769;-78
2021/01/21 08:08:45;;;;;;;;;25.50;20.25;;;;;15.21;41.25;97511.56;4829699;28;102984;-78
2021/01/21 08:11:15;;;;;;;;;22.50;19.50;;;;;15.20;41.28;97509.94;4833480;28;102972;-78
2021/01/21 08:13:42;;;;;;;;;21.00;18.25;;;;;15.18;41.15;97506.63;4824673;28;103814;-78
2021/01/21 08:16:15;;;;;;;;;24.00;21.50;;;;;15.17;41.53;97513.97;4833847;28;103088;-78
2021/01/21 08:18:43;;;;;;;;;21.75;18.75;;;;;15.15;41.20;97510.69;4829496;28;103854;-78
2021/01/21 08:21:22;;;;;;;;;19.75;17.75;;;;;15.14;41.31;97509.03;4832707;28;103026;-78
2021/01/21 08:24:00;;;;;;;;;26.25;19.25;;;;;15.13;41.56;97512.84;4832303;28;104261;-78
2021/01/21 08:26:31;;;;;;;;;20.75;17.25;;;;;15.12;41.23;97497.59;4823437;28;102971;-78
2021/01/21 08:28:58;;;;;;;;;26.00;20.25;;;;;15.11;41.27;97495.94;4824435;28;102643;-78
2021/01/21 08:31:47;;;;;;;;;22.25;19.25;;;;;15.10;41.06;97494.31;4836944;28;102969;-79
2021/01/21 08:34:22;;;;;;;;;25.00;18.75;;;;;15.09;41.10;97491.81;4767726;28;110308;-78
2021/01/21 08:36:49;;;;;;;;;27.25;20.50;;;;;15.08;41.51;97487.47;4835331;28;102817;-78
2021/01/21 08:39:15;;;;;;;;;25.25;18.50;;;;;15.06;41.78;97485.00;4816025;28;103032;-78
2021/01/21 08:41:43;;;;;;;;;22.25;19.75;;;;;15.05;41.73;97486.06;4836873;28;103297;-78
2021/01/21 08:44:16;;;;;;;;;26.25;19.00;;;;;15.04;41.49;97481.72;4830365;28;106474;-78
2021/01/21 08:46:43;;;;;;;;;20.00;17.25;;;;;15.03;41.71;97477.38;4834746;28;102746;-78
2021/01/21 08:49:10;;;;;;;;;24.25;21.50;;;;;15.03;41.27;97482.81;4809344;28;102733;-78
2021/01/21 08:51:41;;;;;;;;;22.00;18.75;;;;;15.01;41.20;97479.50;4834054;28;103046;-78
2021/01/21 08:54:18;;;;;;;;;24.50;19.00;;;;;15.00;41.20;97483.31;4839164;28;104433;-78
2021/01/21 08:57:11;;;;;;;;;20.50;18.50;;;;;15.00;41.80;97482.47;4852593;28;103606;-78
2021/01/21 08:59:39;;;;;;;;;17.50;17.00;;;;;14.99;41.18;97489.03;4730315;28;105318;-78
2021/01/21 09:02:06;;;;;;;;;22.00;20.25;;;;;14.98;41.09;97493.66;4786525;28;108593;-78
2021/01/21 09:04:37;;;;;;;;;26.50;22.00;;;;;14.97;41.64;97491.16;4826094;28;103810;-78
2021/01/21 09:07:06;;;;;;;;;25.00;21.25;;;;;14.96;41.65;97481.34;4831161;28;103041;-78
2021/01/21 09:09:34;;;;;;;;;20.25;17.25;;;;;14.96;41.52;97482.16;4827840;28;102775;-78
2021/01/21 09:12:16;;;;;;;;;26.00;20.50;;;;;14.95;41.40;97485.16;4839831;28;102911;-78
2021/01/21 09:14:44;;;;;;;;;20.00;18.25;;;;;14.93;41.41;97493.59;4770980;28;109352;-78
2021/01/21 09:17:16;;;;;;;;;22.50;19.50;;;;;14.94;41.40;97495.22;4825423;28;102799;-78
2021/01/21 09:19:45;;;;;;;;;21.25;17.50;;;;;14.92;41.31;97502.81;4830779;28;102804;-78
2021/01/21 09:22:17;;;;;;;;;22.50;19.00;;;;;14.91;41.20;97487.56;4832350;28;104379;-78
2021/01/21 09:25:23;;;;;;;;;25.75;19.50;;;;;14.90;41.26;97485.94;4833900;28;104036;-78
2021/01/21 09:27:53;;;;;;;;;27.75;22.00;;;;;14.90;41.23;97488.66;4746765;28;103144;-78
2021/01/21 09:30:21;;;;;;;;;23.50;19.50;;;;;14.89;41.33;97497.06;4829135;28;103047;-78
2021/01/21 09:32:47;;;;;;;;;23.75;21.25;;;;;14.89;41.36;97502.50;4830634;28;103036;-78
2021/01/21 09:35:16;;;;;;;;;22.50;21.25;;;;;14.88;41.34;97495.41;4808104;28;104145;-78
2021/01/21 09:37:44;;;;;;;;;26.00;23.25;;;;;14.88;41.64;97496.25;4834072;28;105077;-78
2021/01/21 09:40:13;;;;;;;;;23.75;19.50;;;;;14.87;41.44;97483.72;4827721;28;103005;-78
2021/01/21 09:42:40;;;;;;;;;22.50;21.50;;;;;14.85;41.21;97491.31;4832269;28;103580;-78
2021/01/21 09:45:07;;;;;;;;;25.75;20.25;;;;;14.85;42.07;97480.44;4831457;28;103890;-78
2021/01/21 09:47:35;;;;;;;;;18.75;18.25;;;;;14.84;41.30;97486.94;4831073;28;103008;-78
2021/01/21 09:50:05;;;;;;;;;25.75;19.00;;;;;14.84;41.14;97492.41;4834404;28;103206;-79
2021/01/21 09:52:33;;;;;;;;;21.75;19.00;;;;;14.83;41.21;97482.56;4831793;28;102987;-78
2021/01/21 09:55:00;;;;;;;;;21.75;19.00;;;;;14.82;41.95;97480.09;4834813;28;109654;-78
2021/01/21 09:57:27;;;;;;;;;27.75;23.50;;;;;14.81;41.29;97482.03;4832263;28;102908;-78
2021/01/21 09:59:54;;;;;;;;;21.00;18.50;;;;;14.82;41.80;97475.47;4831354;28;103037;-78
2021/01/21 10:02:21;;;;;;;;;18.75;17.00;;;;;14.81;41.43;97476.59;4828448;28;103475;-78
2021/01/21 10:04:48;;;;;;;;;18.50;17.50;;;;;14.81;41.88;97478.47;4832005;28;104261;-78
2021/01/21 10:07:15;;;;;;;;;19.00;17.50;;;;;14.81;41.08;97462.97;4825469;28;103181;-78
2021/01/21 10:09:42;;;;;;;;;19.00;16.25;;;;;14.81;41.49;97468.41;4826258;28;103097;-78
2021/01/21 10:12:09;;;;;;;;;18.50;17.00;;;;;14.80;41.96;97469.50;4840134;28;102910;-78
2021/01/21 10:14:37;;;;;;;;;26.75;19.75;;;;;14.80;41.18;97466.78;4831249;28;104139;-78
2021/01/21 10:17:04;;;;;;;;;23.50;17.25;;;;;14.80;41.58;97469.50;4833846;28;102979;-78
2021/01/21 10:19:30;;;;;;;;;25.50;22.75;;;;;14.79;41.38;97473.28;4833340;28;102995;-78
2021/01/21 10:21:57;;;;;;;;;19.00;18.00;;;;;14.80;41.99;97465.94;4827527;28;103001;-78
2021/01/21 10:24:24;;;;;;;;;20.50;17.25;;;;;14.79;41.41;97465.13;4832416;28;103966;-79
2021/01/21 10:26:51;;;;;;;;;21.25;19.00;;;;;14.80;41.21;97463.22;4825158;28;102846;-78
2021/01/21 10:29:18;;;;;;;;;18.25;15.00;;;;;14.79;41.27;97462.41;4829063;28;102771;-78
2021/01/21 10:31:49;;;;;;;;;21.00;18.25;;;;;14.79;42.05;97467.00;4836241;28;102994;-78
2021/01/21 10:34:16;;;;;;;;;23.00;18.00;;;;;14.78;41.92;97466.19;4830218;28;104152;-78
2021/01/21 10:36:42;;;;;;;;;23.75;20.75;;;;;14.78;41.97;97474.34;4830730;28;102866;-78
2021/01/21 10:39:09;;;;;;;;;24.00;20.50;;;;;14.78;41.53;97473.53;4839873;28;102987;-78
2021/01/21 10:41:37;;;;;;;;;21.75;19.75;;;;;14.78;41.92;97474.34;4831868;28;103086;-79
2021/01/21 10:44:04;;;;;;;;;22.75;19.50;;;;;14.79;41.58;97473.28;4832323;28;104021;-78
2021/01/21 10:46:31;;;;;;;;;22.25;17.75;;;;;14.78;41.44;97468.91;4836359;28;102783;-78
2021/01/21 10:48:57;;;;;;;;;22.00;17.75;;;;;14.77;41.51;97467.25;4833017;28;102767;-78
2021/01/21 10:51:24;;;;;;;;;23.00;20.50;;;;;14.78;41.49;97466.19;4834435;28;105444;-78
2021/01/21 10:53:50;;;;;;;;;22.50;19.50;;;;;14.78;41.50;97477.06;4834690;28;103875;-78
2021/01/21 10:56:17;;;;;;;;;21.50;17.75;;;;;14.79;41.41;97461.56;4831358;28;103032;-78
2021/01/21 10:58:44;;;;;;;;;22.50;19.75;;;;;14.77;41.25;97456.38;4834225;28;102785;-79
2021/01/21 11:01:11;;;;;;;;;22.25;17.50;;;;;14.76;41.75;97454.75;4837066;28;103000;-78
2021/01/21 11:03:38;;;;;;;;;25.50;21.50;;;;;14.77;41.33;97453.66;4828929;28;104069;-78
2021/01/21 11:06:05;;;;;;;;;21.75;18.75;;;;;14.78;41.22;97452.59;4824011;28;102919;-78
2021/01/21 11:08:32;;;;;;;;;21.75;17.50;;;;;14.79;41.72;97456.94;4828115;28;102848;-78
2021/01/21 11:10:58;;;;;;;;;22.50;16.00;;;;;14.80;41.98;97460.50;4830862;28;103130;-78
2021/01/21 11:13:28;;;;;;;;;20.25;16.75;;;;;14.79;41.52;97446.06;4837554;28;104426;-78
2021/01/21 11:15:54;;;;;;;;;20.00;17.00;;;;;14.81;41.81;97448.53;4831387;28;102930;-78
2021/01/21 11:18:21;;;;;;;;;18.00;17.00;;;;;14.81;41.24;97443.09;4836283;28;102941;-78
2021/01/21 11:20:48;;;;;;;;;18.25;15.75;;;;;14.82;41.41;97439.28;4842209;28;102893;-78
2021/01/21 11:23:15;;;;;;;;;18.25;16.50;;;;;14.82;41.59;97442.81;4834780;28;104017;-78
2021/01/21 11:25:42;;;;;;;;;19.50;17.00;;;;;14.82;41.39;97434.66;4831672;28;102728;-78
2021/01/21 11:28:09;;;;;;;;;21.25;17.75;;;;;14.82;41.72;97437.38;4838756;28;102732;-78
2021/01/21 11:30:36;;;;;;;;;21.75;18.75;;;;;14.84;41.38;97431.69;4832555;28;102975;-78
2021/01/21 11:33:03;;;;;;;;;24.50;19.50;;;;;14.82;41.52;97431.94;4834672;28;104742;-78
2021/01/21 11:35:33;;;;;;;;;21.50;19.00;;;;;14.83;41.82;97422.72;4839379;28;102692;-78
2021/01/21 11:38:00;;;;;;;;;26.00;24.75;;;;;14.85;42.00;97423.28;4833911;28;103086;-78